Time;durP1;ratioP1;P1;durP2;ratioP2;P2;SDS_P1;SDS_P2;PMS_P1;PMS_P2;Temp;Humidity;BMP_temperature;BMP_pressure;BME280_temperature;BME280_humidity;BME280_pressure;Samples;Min_cycle;Max_cycle;Signal;HPM_P1;HPM_P2
2020/12/25 00:01:27;;;;;;;;;;;22.70;42.50;;;;;;1528080;74;1933;-57
2020/12/25 00:03:29;;;;;;;;;;;22.80;42.50;;;;;;1524211;74;700;-58
2020/12/25 00:05:30;;;;;;;;;;;22.80;42.50;;;;;;1533916;74;721;-56
2020/12/25 00:07:32;;;;;;;;;;;22.80;42.40;;;;;;1528861;75;637;-57
2020/12/25 00:09:34;;;;;;;;;;;22.80;42.40;;;;;;1536721;74;731;-58
2020/12/25 00:11:36;;;;;;;;;;;22.80;42.50;;;;;;1531786;74;1136;-57
2020/12/25 00:13:38;;;;;;;;;;;22.80;42.40;;;;;;1531812;75;629;-58
2020/12/25 00:15:40;;;;;;;;;;;22.80;42.40;;;;;;1529400;74;804;-57
2020/12/25 00:17:42;;;;;;;;;;;22.80;42.50;;;;;;1530028;75;699;-56
2020/12/25 00:19:44;;;;;;;;;;;22.80;42.50;;;;;;1538580;74;676;-56
2020/12/25 00:21:46;;;;;;;;;;;22.80;42.60;;;;;;1537121;75;1952;-56
2020/12/25 00:23:47;;;;;;;;;;;22.80;42.60;;;;;;1537749;75;776;-56
2020/12/25 00:25:49;;;;;;;;;;;22.80;42.60;;;;;;1531003;75;754;-57
2020/12/25 00:27:51;;;;;;;;;;;22.80;42.60;;;;;;1531345;74;730;-57
2020/12/25 00:29:53;;;;;;;;;;;22.80;42.70;;;;;;1533560;75;726;-56
2020/12/25 00:31:55;;;;;;;;;;;22.90;42.90;;;;;;1530226;74;1120;-56
2020/12/25 00:34:06;;;;;;;;;;;22.90;42.90;;;;;;1531384;74;732;-57
2020/12/25 00:36:08;;;;;;;;;;;22.80;42.80;;;;;;1528659;74;729;-56
2020/12/25 00:38:10;;;;;;;;;;;22.90;42.90;;;;;;1529678;74;668;-55
2020/12/25 00:40:12;;;;;;;;;;;22.90;42.90;;;;;;1531535;75;1165;-56
2020/12/25 00:42:14;;;;;;;;;;;23.00;42.80;;;;;;1534240;74;1955;-59
2020/12/25 00:44:16;;;;;;;;;;;22.90;42.80;;;;;;1529210;74;728;-57
2020/12/25 00:46:17;;;;;;;;;;;22.90;42.80;;;;;;1534561;75;757;-59
2020/12/25 00:48:19;;;;;;;;;;;23.00;42.90;;;;;;1533861;75;755;-57
2020/12/25 00:50:21;;;;;;;;;;;23.00;42.80;;;;;;1537391;75;1160;-56
2020/12/25 00:52:24;;;;;;;;;;;22.90;42.90;;;;;;1529758;74;779;-58
2020/12/25 00:54:26;;;;;;;;;;;22.90;43.00;;;;;;1544234;74;807;-59
2020/12/25 00:56:27;;;;;;;;;;;23.00;42.90;;;;;;1538893;74;724;-57
2020/12/25 00:58:29;;;;;;;;;;;23.00;43.00;;;;;;1528081;74;775;-56
2020/12/25 01:00:31;;;;;;;;;;;22.90;43.00;;;;;;1533091;74;1164;-59
2020/12/25 01:02:34;;;;;;;;;;;22.90;43.40;;;;;;1525065;74;1921;-57
2020/12/25 01:04:36;;;;;;;;;;;22.90;43.60;;;;;;1532544;74;674;-57
2020/12/25 01:06:38;;;;;;;;;;;22.80;43.40;;;;;;1527685;74;730;-58
2020/12/25 01:08:40;;;;;;;;;;;22.80;43.70;;;;;;1527249;74;808;-55
2020/12/25 01:10:42;;;;;;;;;;;22.80;43.80;;;;;;1542622;74;1191;-56
2020/12/25 01:12:44;;;;;;;;;;;22.80;43.80;;;;;;1538371;74;744;-57
2020/12/25 01:14:46;;;;;;;;;;;22.80;43.90;;;;;;1534200;74;690;-58
2020/12/25 01:16:48;;;;;;;;;;;22.90;44.00;;;;;;1530625;74;673;-56
2020/12/25 01:18:50;;;;;;;;;;;22.90;44.10;;;;;;1524605;75;1333;-57
2020/12/25 01:20:51;;;;;;;;;;;22.80;44.10;;;;;;1529504;74;1144;-57
2020/12/25 01:22:53;;;;;;;;;;;22.80;44.20;;;;;;1535286;74;1942;-58
2020/12/25 01:24:55;;;;;;;;;;;22.80;44.20;;;;;;1530191;74;706;-56
2020/12/25 01:26:57;;;;;;;;;;;22.80;44.20;;;;;;1530568;74;739;-57
2020/12/25 01:29:01;;;;;;;;;;;22.80;44.20;;;;;;1527722;75;799;-59
2020/12/25 01:31:03;;;;;;;;;;;22.80;44.20;;;;;;1548555;74;1233;-57
2020/12/25 01:33:04;;;;;;;;;;;22.80;44.10;;;;;;1541222;74;691;-58
2020/12/25 01:35:06;;;;;;;;;;;22.90;44.20;;;;;;1533692;74;699;-58
2020/12/25 01:37:08;;;;;;;;;;;22.90;44.20;;;;;;1530836;74;713;-59
2020/12/25 01:39:10;;;;;;;;;;;22.90;44.00;;;;;;1538037;74;793;-59
2020/12/25 01:41:12;;;;;;;;;;;23.00;43.90;;;;;;1535300;74;1942;-58
2020/12/25 01:43:14;;;;;;;;;;;23.10;43.90;;;;;;1546331;74;629;-56
2020/12/25 01:45:16;;;;;;;;;;;23.00;43.80;;;;;;1536258;74;750;-56
2020/12/25 01:47:18;;;;;;;;;;;23.10;43.90;;;;;;1528051;75;782;-55
2020/12/25 01:49:19;;;;;;;;;;;23.10;44.20;;;;;;1533683;74;674;-57
2020/12/25 01:51:21;;;;;;;;;;;23.00;44.10;;;;;;1538901;74;1105;-56
2020/12/25 01:53:23;;;;;;;;;;;23.10;44.10;;;;;;1538548;74;710;-58
2020/12/25 01:55:26;;;;;;;;;;;23.10;44.00;;;;;;1556463;74;686;-58
2020/12/25 01:57:29;;;;;;;;;;;23.10;44.10;;;;;;1531604;75;788;-56
2020/12/25 01:59:31;;;;;;;;;;;23.10;44.30;;;;;;1539601;74;642;-54
2020/12/25 02:01:33;;;;;;;;;;;23.10;44.30;;;;;;1537163;74;1949;-56
2020/12/25 02:03:35;;;;;;;;;;;23.00;44.20;;;;;;1538798;75;659;-56
2020/12/25 02:05:37;;;;;;;;;;;23.00;44.30;;;;;;1555022;74;710;-56
2020/12/25 02:07:39;;;;;;;;;;;23.10;44.20;;;;;;1564306;75;705;-56
2020/12/25 02:09:41;;;;;;;;;;;23.10;44.10;;;;;;1555608;74;691;-55
2020/12/25 02:11:43;;;;;;;;;;;23.20;43.90;;;;;;1560629;74;1152;-55
2020/12/25 02:13:45;;;;;;;;;;;23.10;43.80;;;;;;1548861;75;661;-55
2020/12/25 02:15:47;;;;;;;;;;;23.10;43.70;;;;;;1545342;74;774;-55
2020/12/25 02:17:49;;;;;;;;;;;23.10;43.60;;;;;;1537696;74;684;-55
2020/12/25 02:19:50;;;;;;;;;;;23.10;43.60;;;;;;1548862;74;687;-55
2020/12/25 02:21:52;;;;;;;;;;;23.10;43.50;;;;;;1561601;74;1946;-56
2020/12/25 02:23:54;;;;;;;;;;;23.10;43.40;;;;;;1541656;74;810;-57
2020/12/25 02:25:56;;;;;;;;;;;23.10;43.40;;;;;;1534054;74;745;-57
2020/12/25 02:27:58;;;;;;;;;;;23.10;43.40;;;;;;1562000;74;783;-58
2020/12/25 02:30:00;;;;;;;;;;;23.10;43.50;;;;;;1555853;75;684;-58
2020/12/25 02:32:02;;;;;;;;;;;23.10;43.50;;;;;;1556821;74;1082;-56
2020/12/25 02:34:04;;;;;;;;;;;23.10;43.50;;;;;;1546172;74;736;-56
2020/12/25 02:36:05;;;;;;;;;;;23.10;43.50;;;;;;1538121;74;692;-56
2020/12/25 02:38:07;;;;;;;;;;;23.10;43.50;;;;;;1559157;74;723;-57
2020/12/25 02:40:09;;;;;;;;;;;23.10;43.50;;;;;;1554954;74;688;-57
2020/12/25 02:42:11;;;;;;;;;;;23.10;43.40;;;;;;1570623;75;1937;-56
2020/12/25 02:44:13;;;;;;;;;;;23.00;43.30;;;;;;1552204;74;760;-56
2020/12/25 02:46:15;;;;;;;;;;;23.10;43.40;;;;;;1552665;74;759;-56
2020/12/25 02:48:17;;;;;;;;;;;23.10;43.40;;;;;;1543170;74;761;-56
2020/12/25 02:50:19;;;;;;;;;;;23.10;43.40;;;;;;1543977;74;1127;-56
2020/12/25 02:52:21;;;;;;;;;;;23.10;43.40;;;;;;1541760;74;787;-57
2020/12/25 02:54:23;;;;;;;;;;;23.10;43.30;;;;;;1541663;74;790;-57
2020/12/25 02:56:24;;;;;;;;;;;23.10;43.40;;;;;;1561699;75;809;-58
2020/12/25 02:58:26;;;;;;;;;;;23.10;43.40;;;;;;1549090;75;740;-56
2020/12/25 03:00:28;;;;;;;;;;;23.20;43.40;;;;;;1543213;74;1181;-57
2020/12/25 03:02:30;;;;;;;;;;;23.10;43.40;;;;;;1535310;74;1952;-58
2020/12/25 03:04:32;;;;;;;;;;;23.10;43.40;;;;;;1544575;74;665;-57
2020/12/25 03:06:34;;;;;;;;;;;23.10;43.40;;;;;;1551886;74;765;-56
2020/12/25 03:08:36;;;;;;;;;;;23.20;43.40;;;;;;1540314;74;729;-57
2020/12/25 03:10:38;;;;;;;;;;;23.20;43.40;;;;;;1539257;74;1163;-58
2020/12/25 03:12:41;;;;;;;;;;;23.10;43.40;;;;;;1530125;74;632;-56
2020/12/25 03:14:43;;;;;;;;;;;23.20;43.40;;;;;;1543948;74;753;-57
2020/12/25 03:16:45;;;;;;;;;;;23.10;43.50;;;;;;1538643;74;739;-56
2020/12/25 03:18:46;;;;;;;;;;;23.20;43.50;;;;;;1544543;74;709;-57
2020/12/25 03:20:48;;;;;;;;;;;23.10;43.50;;;;;;1546561;74;1112;-56
2020/12/25 03:22:50;;;;;;;;;;;23.10;43.50;;;;;;1534199;75;1941;-58
2020/12/25 03:24:52;;;;;;;;;;;23.10;43.60;;;;;;1545842;75;655;-55
2020/12/25 03:26:54;;;;;;;;;;;23.10;43.60;;;;;;1551435;74;641;-56
2020/12/25 03:28:56;;;;;;;;;;;23.10;43.60;;;;;;1548526;74;674;-55
2020/12/25 03:30:58;;;;;;;;;;;23.10;43.70;;;;;;1546752;74;1179;-57
2020/12/25 03:32:59;;;;;;;;;;;23.10;43.60;;;;;;1567479;74;781;-57
2020/12/25 03:35:01;;;;;;;;;;;23.10;43.70;;;;;;1563350;74;782;-58
2020/12/25 03:37:03;;;;;;;;;;;23.20;43.70;;;;;;1572062;74;846;-58
2020/12/25 03:39:05;;;;;;;;;;;23.10;43.90;;;;;;1546215;74;718;-56
2020/12/25 03:41:07;;;;;;;;;;;23.10;43.90;;;;;;1552869;75;1060;-56
2020/12/25 03:43:09;;;;;;;;;;;23.10;44.10;;;;;;1573581;74;1929;-57
2020/12/25 03:45:11;;;;;;;;;;;23.10;44.20;;;;;;1545341;74;692;-55
2020/12/25 03:47:13;;;;;;;;;;;23.10;44.40;;;;;;1546217;74;799;-55
2020/12/25 03:49:15;;;;;;;;;;;23.10;44.40;;;;;;1539671;74;673;-55
2020/12/25 03:51:16;;;;;;;;;;;23.10;44.40;;;;;;1546621;74;1138;-55
2020/12/25 03:53:18;;;;;;;;;;;23.10;44.60;;;;;;1553266;74;746;-55
2020/12/25 03:55:20;;;;;;;;;;;23.00;44.50;;;;;;1542144;74;681;-55
2020/12/25 03:57:22;;;;;;;;;;;23.00;44.60;;;;;;1541223;74;683;-57
2020/12/25 03:59:24;;;;;;;;;;;23.00;44.90;;;;;;1552467;75;754;-58
2020/12/25 04:01:26;;;;;;;;;;;23.00;45.00;;;;;;1551771;74;1151;-57
2020/12/25 04:03:28;;;;;;;;;;;23.10;45.20;;;;;;1547323;74;1939;-56
2020/12/25 04:05:30;;;;;;;;;;;23.00;45.10;;;;;;1547087;75;688;-55
2020/12/25 04:07:31;;;;;;;;;;;23.00;45.10;;;;;;1553352;75;672;-57
2020/12/25 04:09:33;;;;;;;;;;;23.00;45.10;;;;;;1537982;74;803;-55
2020/12/25 04:11:35;;;;;;;;;;;23.00;45.10;;;;;;1546029;74;1174;-56
2020/12/25 04:13:37;;;;;;;;;;;23.00;45.10;;;;;;1562792;74;760;-55
2020/12/25 04:15:39;;;;;;;;;;;23.00;45.00;;;;;;1542526;74;792;-56
2020/12/25 04:17:41;;;;;;;;;;;23.00;45.00;;;;;;1569208;75;834;-56
2020/12/25 04:19:43;;;;;;;;;;;23.00;45.10;;;;;;1549722;75;666;-58
2020/12/25 04:21:44;;;;;;;;;;;23.00;45.10;;;;;;1541636;74;1178;-57
2020/12/25 04:23:46;;;;;;;;;;;23.00;45.20;;;;;;1554158;75;1939;-57
2020/12/25 04:25:48;;;;;;;;;;;23.00;45.10;;;;;;1547510;74;725;-56
2020/12/25 04:27:50;;;;;;;;;;;23.10;45.10;;;;;;1542522;75;724;-56
2020/12/25 04:29:52;;;;;;;;;;;23.00;45.00;;;;;;1545853;74;730;-57
2020/12/25 04:31:54;;;;;;;;;;;23.10;45.00;;;;;;1556944;75;1144;-56
2020/12/25 04:33:56;;;;;;;;;;;23.10;45.00;;;;;;1555131;74;674;-58
2020/12/25 04:35:57;;;;;;;;;;;23.10;44.90;;;;;;1544258;74;759;-57
2020/12/25 04:37:59;;;;;;;;;;;23.10;45.00;;;;;;1536942;74;729;-56
2020/12/25 04:40:03;;;;;;;;;;;23.20;44.90;;;;;;1553560;74;743;-56
2020/12/25 04:42:05;;;;;;;;;;;23.10;44.90;;;;;;1579990;74;1089;-57
2020/12/25 04:44:07;;;;;;;;;;;23.10;44.90;;;;;;1561366;74;1967;-58
2020/12/25 04:46:09;;;;;;;;;;;23.10;44.80;;;;;;1556461;75;654;-58
2020/12/25 04:48:11;;;;;;;;;;;23.10;44.70;;;;;;1548757;74;744;-58
2020/12/25 04:50:13;;;;;;;;;;;23.10;44.70;;;;;;1560406;75;1260;-57
2020/12/25 04:52:15;;;;;;;;;;;23.20;44.70;;;;;;1554177;74;749;-56
2020/12/25 04:54:17;;;;;;;;;;;23.20;44.50;;;;;;1540659;74;756;-57
2020/12/25 04:56:19;;;;;;;;;;;23.20;44.40;;;;;;1565693;74;679;-56
2020/12/25 04:58:21;;;;;;;;;;;23.20;44.20;;;;;;1545191;74;722;-58
2020/12/25 05:00:23;;;;;;;;;;;23.20;44.30;;;;;;1545159;74;1122;-57
2020/12/25 05:02:25;;;;;;;;;;;23.10;44.20;;;;;;1548797;75;791;-57
2020/12/25 05:04:27;;;;;;;;;;;23.20;44.20;;;;;;1547238;74;1919;-57
2020/12/25 05:06:29;;;;;;;;;;;23.20;44.10;;;;;;1553949;74;729;-57
2020/12/25 05:08:33;;;;;;;;;;;23.20;44.10;;;;;;1553269;75;695;-58
2020/12/25 05:10:35;;;;;;;;;;;23.20;44.10;;;;;;1535095;74;1689;-57
2020/12/25 05:12:37;;;;;;;;;;;23.30;44.00;;;;;;1557968;74;847;-57
2020/12/25 05:14:40;;;;;;;;;;;23.20;43.90;;;;;;1538917;74;594;-56
2020/12/25 05:16:42;;;;;;;;;;;23.30;44.00;;;;;;1563563;75;782;-55
2020/12/25 05:18:45;;;;;;;;;;;23.30;44.00;;;;;;1541063;75;740;-56
2020/12/25 05:20:46;;;;;;;;;;;23.30;43.90;;;;;;1547872;74;1104;-57
2020/12/25 05:22:48;;;;;;;;;;;23.30;43.90;;;;;;1511180;76;1941;-56
2020/12/25 05:24:50;;;;;;;;;;;23.30;43.80;;;;;;1549989;74;666;-55
2020/12/25 05:26:55;;;;;;;;;;;23.30;43.80;;;;;;1556350;74;699;-56
2020/12/25 05:28:57;;;;;;;;;;;23.40;43.70;;;;;;1546486;74;774;-57
2020/12/25 05:30:59;;;;;;;;;;;23.30;43.60;;;;;;1545312;74;1184;-57
2020/12/25 05:33:01;;;;;;;;;;;23.40;43.60;;;;;;1553975;74;662;-57
2020/12/25 05:35:03;;;;;;;;;;;23.40;43.50;;;;;;1556005;74;734;-58
2020/12/25 05:37:05;;;;;;;;;;;23.40;43.50;;;;;;1549730;75;735;-56
2020/12/25 05:39:06;;;;;;;;;;;23.40;43.50;;;;;;1549343;74;746;-56
2020/12/25 05:41:08;;;;;;;;;;;23.50;43.60;;;;;;1546622;74;1105;-57
2020/12/25 05:43:11;;;;;;;;;;;23.40;43.40;;;;;;1554208;74;1925;-57
2020/12/25 05:45:15;;;;;;;;;;;23.40;43.40;;;;;;1544605;74;772;-56
2020/12/25 05:47:17;;;;;;;;;;;23.40;43.30;;;;;;1553700;74;990;-55
2020/12/25 05:49:19;;;;;;;;;;;23.40;43.30;;;;;;1557738;74;749;-55
2020/12/25 05:51:21;;;;;;;;;;;23.40;43.30;;;;;;1548221;74;1152;-56
2020/12/25 05:53:23;;;;;;;;;;;23.40;43.30;;;;;;1563339;74;685;-55
2020/12/25 05:55:25;;;;;;;;;;;23.40;43.30;;;;;;1545704;74;586;-56
2020/12/25 05:57:29;;;;;;;;;;;23.40;43.30;;;;;;1564521;74;668;-55
2020/12/25 05:59:31;;;;;;;;;;;23.40;43.20;;;;;;1556334;74;1593;-55
2020/12/25 06:01:33;;;;;;;;;;;23.40;43.30;;;;;;1540997;74;1143;-56
2020/12/25 06:03:36;;;;;;;;;;;23.40;43.30;;;;;;1557896;75;1937;-55
2020/12/25 06:05:39;;;;;;;;;;;23.40;43.30;;;;;;1555476;74;695;-56
2020/12/25 06:07:45;;;;;;;;;;;23.40;43.40;;;;;;1544918;74;722;-59
2020/12/25 06:09:47;;;;;;;;;;;23.40;43.40;;;;;;1540140;74;1068;-55
2020/12/25 06:11:50;;;;;;;;;;;23.30;43.40;;;;;;1558984;74;1111;-56
2020/12/25 06:13:51;;;;;;;;;;;23.30;43.40;;;;;;1562639;75;703;-56
2020/12/25 06:15:53;;;;;;;;;;;23.40;43.40;;;;;;1570628;74;740;-56
2020/12/25 06:18:12;;;;;;;;;;;23.40;43.30;;;;;;1542703;74;738;-55
2020/12/25 06:20:14;;;;;;;;;;;23.40;43.30;;;;;;1540499;74;1155;-56
2020/12/25 06:22:20;;;;;;;;;;;23.40;43.20;;;;;;1567346;74;812;-56
2020/12/25 06:24:23;;;;;;;;;;;23.40;43.20;;;;;;1556216;74;1952;-56
2020/12/25 06:26:24;;;;;;;;;;;23.40;43.30;;;;;;1559187;74;686;-56
2020/12/25 06:28:28;;;;;;;;;;;23.50;43.40;;;;;;1556918;75;738;-56
2020/12/25 06:30:30;;;;;;;;;;;23.30;43.30;;;;;;1524981;76;1218;-56
2020/12/25 06:32:32;;;;;;;;;;;23.40;43.20;;;;;;1545083;74;800;-55
2020/12/25 06:34:44;;;;;;;;;;;23.40;43.20;;;;;;1548661;74;649;-55
2020/12/25 06:36:47;;;;;;;;;;;23.40;43.20;;;;;;1546325;74;719;-56
2020/12/25 06:38:49;;;;;;;;;;;23.30;43.30;;;;;;1553977;74;683;-55
2020/12/25 06:40:50;;;;;;;;;;;23.30;43.30;;;;;;1563167;74;1117;-57
2020/12/25 06:42:55;;;;;;;;;;;23.30;43.30;;;;;;1548542;75;1144;-55
2020/12/25 06:44:57;;;;;;;;;;;23.40;43.40;;;;;;1549648;75;1916;-57
2020/12/25 06:47:00;;;;;;;;;;;23.30;43.40;;;;;;1543935;74;737;-56
2020/12/25 06:49:04;;;;;;;;;;;23.30;43.30;;;;;;1539703;74;1322;-55
2020/12/25 06:51:07;;;;;;;;;;;23.40;43.30;;;;;;1556864;75;1718;-57
2020/12/25 06:53:09;;;;;;;;;;;23.40;43.30;;;;;;1555922;75;1203;-57
2020/12/25 06:55:11;;;;;;;;;;;23.40;43.20;;;;;;1553764;75;816;-57
2020/12/25 06:57:13;;;;;;;;;;;23.40;43.20;;;;;;1538937;74;1217;-57
2020/12/25 06:59:16;;;;;;;;;;;23.40;43.30;;;;;;1554350;74;732;-56
2020/12/25 07:01:18;;;;;;;;;;;23.40;43.30;;;;;;1541218;74;1090;-57
2020/12/25 07:03:21;;;;;;;;;;;23.40;43.30;;;;;;1541159;75;1922;-55
2020/12/25 07:05:23;;;;;;;;;;;23.40;43.30;;;;;;1548524;75;787;-57
2020/12/25 07:07:25;;;;;;;;;;;23.40;43.30;;;;;;1552036;74;701;-57
2020/12/25 07:09:34;;;;;;;;;;;23.40;43.20;;;;;;1557794;74;1282;-56
2020/12/25 07:11:37;;;;;;;;;;;23.40;43.20;;;;;;1517886;75;1323;-56
2020/12/25 07:13:39;;;;;;;;;;;23.40;43.10;;;;;;1547880;74;731;-55
2020/12/25 07:15:40;;;;;;;;;;;23.40;43.00;;;;;;1531476;75;643;-56
2020/12/25 07:17:42;;;;;;;;;;;23.40;43.00;;;;;;1544381;74;740;-57
2020/12/25 07:19:44;;;;;;;;;;;23.40;42.90;;;;;;1536493;75;780;-58
2020/12/25 07:21:46;;;;;;;;;;;23.50;43.10;;;;;;1550567;74;1087;-56
2020/12/25 07:23:48;;;;;;;;;;;23.40;43.00;;;;;;1537728;74;1925;-57
2020/12/25 07:25:50;;;;;;;;;;;23.50;43.10;;;;;;1541180;74;691;-57
2020/12/25 07:27:55;;;;;;;;;;;23.50;43.10;;;;;;1542556;74;754;-56
2020/12/25 07:29:55;;;;;;;;;;;23.50;43.10;;;;;;1528615;74;1689;-55
2020/12/25 07:31:57;;;;;;;;;;;23.50;43.10;;;;;;1536064;74;1141;-55
2020/12/25 07:33:59;;;;;;;;;;;23.40;43.00;;;;;;1529928;75;812;-55
2020/12/25 07:36:01;;;;;;;;;;;23.50;43.10;;;;;;1530205;74;677;-55
2020/12/25 07:38:04;;;;;;;;;;;23.50;43.10;;;;;;1529194;74;705;-58
2020/12/25 07:40:09;;;;;;;;;;;23.50;43.10;;;;;;1529004;74;738;-56
2020/12/25 07:42:11;;;;;;;;;;;23.50;43.00;;;;;;1528671;74;1086;-57
2020/12/25 07:44:13;;;;;;;;;;;23.50;42.90;;;;;;1528119;75;1933;-58
2020/12/25 07:46:15;;;;;;;;;;;23.60;42.90;;;;;;1531402;74;731;-57
2020/12/25 07:48:18;;;;;;;;;;;23.50;42.90;;;;;;1540985;74;672;-57
2020/12/25 07:50:20;;;;;;;;;;;23.60;42.90;;;;;;1529960;74;1126;-55
2020/12/25 07:52:21;;;;;;;;;;;23.50;43.10;;;;;;1526062;74;682;-55
2020/12/25 07:54:23;;;;;;;;;;;23.50;43.10;;;;;;1532874;74;788;-56
2020/12/25 07:56:33;;;;;;;;;;;23.50;43.10;;;;;;1537445;74;740;-56
2020/12/25 07:58:36;;;;;;;;;;;23.60;43.10;;;;;;1535996;74;714;-56
2020/12/25 08:00:38;;;;;;;;;;;23.50;43.10;;;;;;1528753;75;1393;-57
2020/12/25 08:02:42;;;;;;;;;;;23.50;43.10;;;;;;1527129;74;709;-57
2020/12/25 08:04:47;;;;;;;;;;;23.50;43.10;;;;;;1521634;74;1917;-55
2020/12/25 08:06:49;;;;;;;;;;;23.50;43.10;;;;;;1538981;75;614;-56
2020/12/25 08:08:54;;;;;;;;;;;23.50;43.10;;;;;;1555302;74;684;-56
2020/12/25 08:10:56;;;;;;;;;;;23.50;43.10;;;;;;1529861;74;1159;-56
2020/12/25 08:12:58;;;;;;;;;;;23.60;43.00;;;;;;1538904;74;729;-57
2020/12/25 08:15:00;;;;;;;;;;;23.50;43.00;;;;;;1534829;75;751;-56
2020/12/25 08:17:02;;;;;;;;;;;23.60;43.00;;;;;;1532249;74;712;-55
2020/12/25 08:19:04;;;;;;;;;;;23.50;42.90;;;;;;1531654;74;781;-56
2020/12/25 08:21:06;;;;;;;;;;;23.50;43.00;;;;;;1529757;74;1143;-54
2020/12/25 08:23:08;;;;;;;;;;;23.60;42.90;;;;;;1535377;74;740;-57
2020/12/25 08:25:10;;;;;;;;;;;23.60;42.70;;;;;;1535390;74;1949;-57
2020/12/25 08:27:16;;;;;;;;;;;23.60;42.80;;;;;;1528905;74;968;-56
2020/12/25 08:29:15;;;;;;;;;;;23.50;42.90;;;;;;1532643;74;1627;-55
2020/12/25 08:31:17;;;;;;;;;;;23.50;43.00;;;;;;1538240;75;1198;-56
2020/12/25 08:33:26;;;;;;;;;;;23.40;42.90;;;;;;1532249;74;700;-57
2020/12/25 08:35:28;;;;;;;;;;;23.40;42.90;;;;;;1527411;74;681;-57
2020/12/25 08:37:30;;;;;;;;;;;23.40;43.00;;;;;;1534613;74;655;-58
2020/12/25 08:39:32;;;;;;;;;;;23.40;43.00;;;;;;1530867;75;683;-58
2020/12/25 08:41:34;;;;;;;;;;;23.40;43.10;;;;;;1532966;74;1137;-58
2020/12/25 08:43:35;;;;;;;;;;;23.40;43.10;;;;;;1531678;75;776;-57
2020/12/25 08:45:39;;;;;;;;;;;23.40;43.10;;;;;;1538308;74;1944;-56
2020/12/25 08:47:41;;;;;;;;;;;23.40;43.10;;;;;;1534616;74;1770;-56
2020/12/25 08:49:43;;;;;;;;;;;23.40;43.10;;;;;;1530038;74;772;-56
2020/12/25 08:51:45;;;;;;;;;;;23.40;43.10;;;;;;1532583;74;1268;-55
2020/12/25 08:53:50;;;;;;;;;;;23.40;43.10;;;;;;1531872;74;796;-57
2020/12/25 08:55:55;;;;;;;;;;;23.40;43.20;;;;;;1523811;74;702;-56
2020/12/25 08:57:57;;;;;;;;;;;23.40;43.20;;;;;;1522953;75;731;-55
2020/12/25 09:00:02;;;;;;;;;;;23.40;43.20;;;;;;1526327;74;733;-56
2020/12/25 09:02:04;;;;;;;;;;;23.40;43.20;;;;;;1547908;74;1117;-56
2020/12/25 09:04:07;;;;;;;;;;;23.30;43.40;;;;;;1533650;75;1936;-55
2020/12/25 09:06:09;;;;;;;;;;;23.40;43.50;;;;;;1533049;74;1684;-56
2020/12/25 09:08:11;;;;;;;;;;;23.30;43.40;;;;;;1532475;74;684;-55
2020/12/25 09:10:13;;;;;;;;;;;23.30;43.40;;;;;;1542870;74;681;-56
2020/12/25 09:12:16;;;;;;;;;;;23.30;43.40;;;;;;1532012;75;742;-55
2020/12/25 09:14:18;;;;;;;;;;;23.30;43.50;;;;;;1537675;75;749;-57
2020/12/25 09:16:20;;;;;;;;;;;23.30;43.60;;;;;;1545809;74;763;-58
2020/12/25 09:18:22;;;;;;;;;;;23.40;43.50;;;;;;1556842;74;674;-58
2020/12/25 09:20:24;;;;;;;;;;;23.40;43.30;;;;;;1542858;74;1149;-57
2020/12/25 09:22:25;;;;;;;;;;;23.40;43.10;;;;;;1551964;75;1072;-57
2020/12/25 09:24:27;;;;;;;;;;;23.40;43.00;;;;;;1545676;75;1932;-56
2020/12/25 09:26:29;;;;;;;;;;;23.50;43.10;;;;;;1548004;75;812;-57
2020/12/25 09:28:31;;;;;;;;;;;23.40;42.80;;;;;;1560966;74;799;-57
2020/12/25 09:30:33;;;;;;;;;;;23.50;42.90;;;;;;1550030;74;1093;-57
2020/12/25 09:32:35;;;;;;;;;;;23.50;42.80;;;;;;1559735;74;777;-57
2020/12/25 09:34:37;;;;;;;;;;;23.50;42.80;;;;;;1540098;74;727;-58
2020/12/25 09:36:39;;;;;;;;;;;23.50;42.70;;;;;;1559815;74;781;-58
2020/12/25 09:38:44;;;;;;;;;;;23.50;42.70;;;;;;1535587;75;1596;-57
2020/12/25 09:40:49;;;;;;;;;;;23.50;42.70;;;;;;1543237;74;1175;-56
2020/12/25 09:42:51;;;;;;;;;;;23.40;42.60;;;;;;1548312;74;704;-56
2020/12/25 09:44:53;;;;;;;;;;;23.40;42.60;;;;;;1564062;74;1923;-57
2020/12/25 09:46:55;;;;;;;;;;;23.40;42.60;;;;;;1553871;75;781;-56
2020/12/25 09:48:57;;;;;;;;;;;23.40;42.50;;;;;;1546481;74;671;-56
2020/12/25 09:50:59;;;;;;;;;;;23.40;42.50;;;;;;1544306;74;1146;-55
2020/12/25 09:53:01;;;;;;;;;;;23.40;42.50;;;;;;1552733;74;731;-55
2020/12/25 09:55:03;;;;;;;;;;;23.40;42.60;;;;;;1568218;74;878;-56
2020/12/25 09:57:05;;;;;;;;;;;23.40;42.60;;;;;;1561903;74;633;-55
2020/12/25 09:59:07;;;;;;;;;;;23.40;42.60;;;;;;1565049;74;660;-56
2020/12/25 10:01:09;;;;;;;;;;;23.40;42.60;;;;;;1540617;74;1191;-56
2020/12/25 10:03:11;;;;;;;;;;;23.30;42.60;;;;;;1537655;74;675;-55
2020/12/25 10:05:13;;;;;;;;;;;23.50;42.70;;;;;;1541280;74;1941;-57
2020/12/25 10:07:14;;;;;;;;;;;23.40;42.60;;;;;;1559108;74;780;-55
2020/12/25 10:09:16;;;;;;;;;;;23.40;42.70;;;;;;1542557;74;784;-55
2020/12/25 10:11:21;;;;;;;;;;;23.40;42.70;;;;;;1562032;74;1158;-57
2020/12/25 10:13:24;;;;;;;;;;;23.30;42.80;;;;;;1566216;75;687;-56
2020/12/25 10:15:26;;;;;;;;;;;23.30;42.80;;;;;;1570218;75;725;-55
2020/12/25 10:17:28;;;;;;;;;;;23.30;42.80;;;;;;1541072;74;686;-56
2020/12/25 10:19:29;;;;;;;;;;;23.30;42.90;;;;;;1557662;74;697;-57
2020/12/25 10:21:31;;;;;;;;;;;23.20;42.80;;;;;;1547790;74;1110;-56
2020/12/25 10:23:33;;;;;;;;;;;23.30;42.90;;;;;;1536530;74;685;-56
2020/12/25 10:25:35;;;;;;;;;;;23.30;43.00;;;;;;1569801;74;1944;-56
2020/12/25 10:27:37;;;;;;;;;;;23.30;43.00;;;;;;1554016;74;688;-55
2020/12/25 10:29:39;;;;;;;;;;;23.30;43.10;;;;;;1545945;74;717;-56
2020/12/25 10:31:41;;;;;;;;;;;23.30;43.10;;;;;;1538477;74;1175;-57
2020/12/25 10:33:42;;;;;;;;;;;23.20;43.00;;;;;;1553202;74;691;-57
2020/12/25 10:35:45;;;;;;;;;;;23.30;43.00;;;;;;1559307;74;701;-56
2020/12/25 10:37:46;;;;;;;;;;;23.20;43.10;;;;;;1530866;74;696;-57
2020/12/25 10:39:48;;;;;;;;;;;23.30;43.20;;;;;;1532096;74;731;-56
2020/12/25 10:41:50;;;;;;;;;;;23.20;43.10;;;;;;1540453;75;1148;-57
2020/12/25 10:43:52;;;;;;;;;;;23.20;43.20;;;;;;1555087;74;1135;-56
2020/12/25 10:45:54;;;;;;;;;;;23.30;43.10;;;;;;1555501;74;1945;-55
2020/12/25 10:47:56;;;;;;;;;;;23.30;43.10;;;;;;1547211;75;681;-56
2020/12/25 10:49:58;;;;;;;;;;;23.40;42.90;;;;;;1540916;75;746;-57
2020/12/25 10:51:59;;;;;;;;;;;23.30;42.80;;;;;;1543701;74;1142;-55
2020/12/25 10:54:01;;;;;;;;;;;23.40;42.70;;;;;;1556914;75;732;-55
2020/12/25 10:56:03;;;;;;;;;;;23.40;42.60;;;;;;1562236;75;686;-56
2020/12/25 10:58:05;;;;;;;;;;;23.40;42.50;;;;;;1561006;75;777;-58
2020/12/25 11:00:07;;;;;;;;;;;23.40;42.50;;;;;;1539754;74;775;-57
2020/12/25 11:02:09;;;;;;;;;;;23.40;42.30;;;;;;1542330;74;1115;-56
2020/12/25 11:04:11;;;;;;;;;;;23.40;42.30;;;;;;1538511;74;664;-56
2020/12/25 11:06:12;;;;;;;;;;;23.40;42.30;;;;;;1542039;75;1939;-55
2020/12/25 11:08:14;;;;;;;;;;;23.40;42.20;;;;;;1546169;75;710;-56
2020/12/25 11:10:16;;;;;;;;;;;23.40;42.20;;;;;;1551597;74;1156;-56
2020/12/25 11:12:18;;;;;;;;;;;23.40;42.10;;;;;;1573312;74;695;-57
2020/12/25 11:14:20;;;;;;;;;;;23.40;42.10;;;;;;1556183;74;656;-55
2020/12/25 11:16:25;;;;;;;;;;;23.40;42.10;;;;;;1546726;74;765;-56
2020/12/25 11:18:27;;;;;;;;;;;23.50;42.10;;;;;;1538264;74;734;-57
2020/12/25 11:20:29;;;;;;;;;;;23.40;42.00;;;;;;1549408;74;1100;-55
2020/12/25 11:22:31;;;;;;;;;;;23.30;41.90;;;;;;1548243;74;737;-56
2020/12/25 11:24:33;;;;;;;;;;;23.40;41.90;;;;;;1551757;75;760;-58
2020/12/25 11:26:35;;;;;;;;;;;23.30;41.90;;;;;;1565728;74;1943;-55
2020/12/25 11:28:38;;;;;;;;;;;23.40;41.90;;;;;;1565640;75;726;-58
2020/12/25 11:30:40;;;;;;;;;;;23.40;41.80;;;;;;1535496;74;1155;-58
2020/12/25 11:32:42;;;;;;;;;;;23.30;42.00;;;;;;1531269;74;761;-56
2020/12/25 11:34:43;;;;;;;;;;;23.30;41.80;;;;;;1538603;74;662;-58
2020/12/25 11:36:45;;;;;;;;;;;23.40;41.80;;;;;;1530171;74;704;-57
2020/12/25 11:38:47;;;;;;;;;;;23.40;41.80;;;;;;1532572;74;760;-58
2020/12/25 11:40:49;;;;;;;;;;;23.30;41.80;;;;;;1535345;74;1125;-56
2020/12/25 11:42:51;;;;;;;;;;;23.30;41.80;;;;;;1532621;74;770;-56
2020/12/25 11:44:53;;;;;;;;;;;23.40;41.70;;;;;;1532334;74;670;-55
2020/12/25 11:46:58;;;;;;;;;;;23.30;41.80;;;;;;1535467;74;790;-55
2020/12/25 11:49:03;;;;;;;;;;;23.30;41.70;;;;;;1539210;75;717;-57
2020/12/25 11:51:04;;;;;;;;;;;23.30;41.70;;;;;;1531740;74;1446;-55
2020/12/25 11:53:06;;;;;;;;;;;23.30;41.70;;;;;;1550410;74;758;-56
2020/12/25 11:55:07;;;;;;;;;;;23.40;41.70;;;;;;1536269;74;743;-57
2020/12/25 11:57:09;;;;;;;;;;;23.30;41.60;;;;;;1553639;75;702;-56
2020/12/25 11:59:11;;;;;;;;;;;23.20;41.80;;;;;;1539040;74;667;-57
2020/12/25 12:01:13;;;;;;;;;;;23.20;41.90;;;;;;1547987;74;1068;-56
2020/12/25 12:03:15;;;;;;;;;;;23.30;42.10;;;;;;1542864;74;716;-56
2020/12/25 12:05:17;;;;;;;;;;;23.20;42.00;;;;;;1544834;74;1915;-56
2020/12/25 12:07:19;;;;;;;;;;;23.20;42.10;;;;;;1545908;75;771;-56
2020/12/25 12:09:21;;;;;;;;;;;23.20;42.20;;;;;;1565497;74;715;-57